createdAt,value
2022-08-26T00:02:49.921Z,18.30
2022-08-26T00:07:58.409Z,21.00
2022-08-26T00:13:07.443Z,18.90
2022-08-26T00:18:21.929Z,17.10
2022-08-26T00:23:30.351Z,19.90
2022-08-26T00:28:40.340Z,21.40
2022-08-26T00:33:48.243Z,19.80
2022-08-26T00:38:57.034Z,18.60
2022-08-26T00:44:06.183Z,21.00
2022-08-26T00:49:22.354Z,27.90
2022-08-26T00:54:36.357Z,20.20
2022-08-26T00:59:46.396Z,26.10
2022-08-26T01:04:56.549Z,21.00
2022-08-26T01:10:07.339Z,17.10
2022-08-26T01:15:21.827Z,23.40
2022-08-26T01:20:35.574Z,23.00
2022-08-26T01:25:46.671Z,22.10
2022-08-26T01:30:57.699Z,20.70
2022-08-26T01:36:05.939Z,19.50
2022-08-26T01:41:19.654Z,16.90
2022-08-26T01:46:30.522Z,17.30
2022-08-26T01:51:40.610Z,19.70
2022-08-26T01:56:49.233Z,21.70
2022-08-26T02:01:57.078Z,18.90
2022-08-26T02:07:06.453Z,19.70
2022-08-26T02:12:17.366Z,20.80
2022-08-26T02:17:31.277Z,19.30
2022-08-26T02:22:40.394Z,17.50
2022-08-26T02:27:50.915Z,19.40
2022-08-26T02:32:59.992Z,20.80
2022-08-26T02:38:11.191Z,23.90
2022-08-26T02:43:19.334Z,22.40
2022-08-26T02:48:41.731Z,19.60
2022-08-26T02:53:48.725Z,22.60
2022-08-26T02:58:57.364Z,17.20
2022-08-26T03:04:11.806Z,21.20
2022-08-26T03:09:20.227Z,21.50
2022-08-26T03:14:29.171Z,18.90
2022-08-26T03:19:37.208Z,26.20
2022-08-26T03:24:46.617Z,20.60
2022-08-26T03:30:12.058Z,19.30
2022-08-26T03:35:19.903Z,21.20
2022-08-26T03:40:30.030Z,15.80
2022-08-26T03:45:39.665Z,22.00
2022-08-26T03:50:49.027Z,17.70
2022-08-26T03:55:59.180Z,18.00
2022-08-26T04:01:07.685Z,19.50
2022-08-26T04:06:17.415Z,23.80
2022-08-26T04:11:34.206Z,16.50
2022-08-26T04:16:44.732Z,22.40
2022-08-26T04:21:54.285Z,21.00
2022-08-26T04:27:03.919Z,18.30
2022-08-26T04:32:12.536Z,20.00
2022-08-26T04:37:21.334Z,22.30
2022-08-26T04:42:32.286Z,21.70
2022-08-26T04:47:40.939Z,20.70
2022-08-26T04:52:48.272Z,35.70
2022-08-26T04:57:56.812Z,22.10
2022-08-26T05:03:06.905Z,21.50
2022-08-26T05:08:20.263Z,20.70
2022-08-26T05:13:29.076Z,19.50
2022-08-26T05:18:39.086Z,17.80
2022-08-26T05:23:46.977Z,19.00
2022-08-26T05:28:57.393Z,16.40
2022-08-26T05:34:09.185Z,17.60
2022-08-26T05:39:16.497Z,20.60
2022-08-26T05:44:25.121Z,16.90
2022-08-26T05:49:33.649Z,19.60
2022-08-26T05:54:43.265Z,16.10
2022-08-26T05:59:51.214Z,14.30
2022-08-26T06:04:58.831Z,16.20
2022-08-26T06:10:31.142Z,16.00
2022-08-26T06:15:34.559Z,17.80
2022-08-26T06:20:54.602Z,17.30
2022-08-26T06:26:06.211Z,13.20
2022-08-26T06:31:13.887Z,14.00
2022-08-26T06:36:24.205Z,18.30
2022-08-26T06:41:33.718Z,18.50
2022-08-26T06:46:43.116Z,14.00
2022-08-26T06:51:51.514Z,18.80
2022-08-26T06:57:01.746Z,17.00
2022-08-26T07:02:10.183Z,21.70
2022-08-26T07:07:22.160Z,19.20
2022-08-26T07:12:31.316Z,16.60
2022-08-26T07:17:38.830Z,17.60
2022-08-26T07:22:48.009Z,19.80
2022-08-26T07:27:56.921Z,23.80
2022-08-26T07:33:04.796Z,22.80
2022-08-26T07:38:12.765Z,14.10
2022-08-26T07:43:21.018Z,23.50
2022-08-26T07:48:32.333Z,18.20
2022-08-26T07:54:00.935Z,18.30
2022-08-26T07:59:13.962Z,23.50
2022-08-26T08:04:26.350Z,21.90
2022-08-26T08:09:34.411Z,24.00
2022-08-26T08:14:42.340Z,21.40
2022-08-26T08:19:51.037Z,24.00
2022-08-26T08:25:00.997Z,16.70
2022-08-26T08:30:22.889Z,15.70
2022-08-26T08:35:31.866Z,17.70
2022-08-26T08:40:42.615Z,21.40
2022-08-26T08:45:55.822Z,16.50
2022-08-26T08:51:17.453Z,15.90
2022-08-26T08:56:32.017Z,17.20
2022-08-26T09:01:55.169Z,14.20
2022-08-26T09:07:05.870Z,15.70
2022-08-26T09:12:20.587Z,14.80
2022-08-26T09:17:49.416Z,18.30
2022-08-26T09:22:57.964Z,18.60
2022-08-26T09:28:12.637Z,12.70
2022-08-26T09:33:28.182Z,15.00
2022-08-26T09:38:37.904Z,12.70
2022-08-26T09:43:56.682Z,13.30
2022-08-26T09:49:26.774Z,13.90
2022-08-26T09:54:34.096Z,16.70
2022-08-26T09:59:41.526Z,20.80
2022-08-26T10:04:56.765Z,21.90
2022-08-26T10:10:09.389Z,18.10
2022-08-26T10:15:19.806Z,15.60
2022-08-26T10:20:39.407Z,19.80
2022-08-26T10:25:53.982Z,17.00
2022-08-26T10:31:10.400Z,14.80
2022-08-26T10:36:47.215Z,16.80
2022-08-26T10:42:09.935Z,12.80
2022-08-26T10:47:22.820Z,12.20
2022-08-26T10:52:45.763Z,11.70
2022-08-26T10:57:59.244Z,13.50
2022-08-26T11:03:33.292Z,13.10
2022-08-26T11:08:51.175Z,10.50
2022-08-26T11:14:07.073Z,10.10
2022-08-26T11:19:59.689Z,9.90
2022-08-26T11:25:16.182Z,12.10
2022-08-26T11:30:44.234Z,12.40
2022-08-26T11:35:55.844Z,11.60
2022-08-26T11:41:18.540Z,7.10
2022-08-26T11:46:30.727Z,10.90
2022-08-26T11:51:40.839Z,10.80
2022-08-26T11:56:52.553Z,6.90
2022-08-26T12:02:01.333Z,10.00
2022-08-26T12:07:10.721Z,10.40
2022-08-26T12:12:23.161Z,7.20
2022-08-26T12:17:32.000Z,8.60
2022-08-26T12:22:48.243Z,9.70
2022-08-26T12:28:04.310Z,8.10
2022-08-26T12:33:22.168Z,11.90
2022-08-26T12:38:34.174Z,6.20
2022-08-26T12:43:44.652Z,8.00
2022-08-26T12:48:53.888Z,7.50
2022-08-26T12:54:03.059Z,6.00
2022-08-26T12:59:22.217Z,9.40
2022-08-26T13:04:42.553Z,6.10
2022-08-26T13:09:50.415Z,6.60
2022-08-26T13:15:01.275Z,7.30
2022-08-26T13:20:10.150Z,8.00
2022-08-26T13:25:19.653Z,7.80
2022-08-26T13:30:29.314Z,6.80
2022-08-26T13:35:37.543Z,6.80
2022-08-26T13:40:46.070Z,10.30
2022-08-26T13:45:52.987Z,5.80
2022-08-26T13:51:00.321Z,6.60
2022-08-26T13:56:11.118Z,5.60
2022-08-26T14:01:19.535Z,5.90
2022-08-26T14:06:27.025Z,7.30
2022-08-26T14:11:41.081Z,6.80
2022-08-26T14:17:01.117Z,6.30
2022-08-26T14:22:10.015Z,6.20
2022-08-26T14:27:17.288Z,6.80
2022-08-26T14:32:29.584Z,6.90
2022-08-26T14:37:40.207Z,5.80
2022-08-26T14:42:53.794Z,6.80
2022-08-26T14:48:03.114Z,6.30
2022-08-26T14:53:27.745Z,7.10
2022-08-26T14:58:35.074Z,8.60
2022-08-26T15:03:43.908Z,7.60
2022-08-26T15:08:51.256Z,7.20
2022-08-26T15:14:00.167Z,8.20
2022-08-26T15:19:07.920Z,7.10
2022-08-26T15:24:17.807Z,7.40
2022-08-26T15:29:25.873Z,7.10
2022-08-26T15:34:34.094Z,6.70
2022-08-26T15:39:41.252Z,8.40
2022-08-26T15:44:48.734Z,7.40
2022-08-26T15:49:56.583Z,6.80
2022-08-26T15:55:05.320Z,8.30
2022-08-26T16:00:16.665Z,6.30
2022-08-26T16:05:23.941Z,7.60
2022-08-26T16:10:33.113Z,8.60
2022-08-26T16:15:43.698Z,6.90
2022-08-26T16:21:08.779Z,7.40
2022-08-26T16:26:30.452Z,7.50
2022-08-26T16:31:39.057Z,6.30
2022-08-26T16:36:46.080Z,6.60
2022-08-26T16:41:54.054Z,6.70
2022-08-26T16:47:00.954Z,11.90
2022-08-26T16:52:08.036Z,8.70
2022-08-26T16:57:16.294Z,11.20
2022-08-26T17:02:24.706Z,9.50
2022-08-26T17:07:32.445Z,9.50
2022-08-26T17:12:41.300Z,9.40
2022-08-26T17:17:48.934Z,10.80
2022-08-26T17:22:57.348Z,12.00
2022-08-26T17:28:04.784Z,14.40
2022-08-26T17:33:22.130Z,11.50
2022-08-26T17:38:32.094Z,13.80
2022-08-26T17:43:41.265Z,13.30
2022-08-26T17:48:49.134Z,12.30
2022-08-26T17:53:57.709Z,10.60
2022-08-26T17:59:04.875Z,10.80
2022-08-26T18:04:12.236Z,11.70
2022-08-26T18:09:19.615Z,12.50
2022-08-26T18:14:26.686Z,11.20
2022-08-26T18:19:34.317Z,10.00
2022-08-26T18:24:43.179Z,10.20
2022-08-26T18:30:16.459Z,12.20
2022-08-26T18:35:28.715Z,14.80
2022-08-26T18:40:38.813Z,12.00
2022-08-26T18:45:45.948Z,15.50
2022-08-26T18:50:55.183Z,17.20
2022-08-26T18:56:04.264Z,12.30
2022-08-26T19:01:12.200Z,15.70
2022-08-26T19:06:21.901Z,16.30
2022-08-26T19:11:31.100Z,13.90
2022-08-26T19:16:41.236Z,14.90
2022-08-26T19:21:48.624Z,15.90
2022-08-26T19:26:58.401Z,15.40
2022-08-26T19:32:08.817Z,16.00
2022-08-26T19:37:16.740Z,18.80
2022-08-26T19:42:24.451Z,12.40
2022-08-26T19:47:31.658Z,13.00
2022-08-26T19:52:39.616Z,16.10
2022-08-26T19:57:46.913Z,13.10
2022-08-26T20:02:57.524Z,15.70
2022-08-26T20:08:05.489Z,16.00
2022-08-26T20:13:13.069Z,15.30
2022-08-26T20:18:38.712Z,18.90
2022-08-26T20:23:47.497Z,20.60
2022-08-26T20:28:54.971Z,18.60
2022-08-26T20:34:05.447Z,17.80
2022-08-26T20:39:15.990Z,16.90
2022-08-26T20:44:24.213Z,18.50
2022-08-26T20:49:32.199Z,19.20
2022-08-26T20:54:41.527Z,16.50
2022-08-26T20:59:51.143Z,16.50
2022-08-26T21:04:59.417Z,16.60
2022-08-26T21:10:06.775Z,14.60
2022-08-26T21:15:14.576Z,14.60
2022-08-26T21:25:28.694Z,16.10
2022-08-26T21:30:43.311Z,15.60
2022-08-26T21:35:55.300Z,15.60
2022-08-26T21:41:04.885Z,14.10
2022-08-26T21:46:15.275Z,12.60
2022-08-26T21:51:24.744Z,15.10
2022-08-26T21:56:34.537Z,19.20
2022-08-26T22:01:41.479Z,13.50
2022-08-26T22:06:52.426Z,14.80
2022-08-26T22:12:01.477Z,16.70
2022-08-26T22:17:09.497Z,14.10
2022-08-26T22:22:16.993Z,19.80
2022-08-26T22:27:24.471Z,18.40
2022-08-26T22:32:31.409Z,20.10
2022-08-26T22:37:38.529Z,16.20
2022-08-26T22:42:55.682Z,14.70
2022-08-26T22:48:08.485Z,15.90
2022-08-26T22:53:17.765Z,13.10
2022-08-26T22:58:30.589Z,17.40
2022-08-26T23:03:38.489Z,16.90
2022-08-26T23:08:47.441Z,17.70
2022-08-26T23:13:56.272Z,15.80
2022-08-26T23:19:04.425Z,13.70
2022-08-26T23:24:13.257Z,15.20
2022-08-26T23:29:20.102Z,18.30
2022-08-26T23:34:45.815Z,15.50
2022-08-26T23:39:57.021Z,15.60
2022-08-26T23:45:06.300Z,15.80
2022-08-26T23:50:14.897Z,17.30
2022-08-26T23:55:24.352Z,17.10
